Time;durP1;ratioP1;P1;durP2;ratioP2;P2;SDS_P1;SDS_P2;PMS_P1;PMS_P2;Temp;Humidity;BMP_temperature;BMP_pressure;BME280_temperature;BME280_humidity;BME280_pressure;Samples;Min_cycle;Max_cycle;Signal;HPM_P1;HPM_P2
2021/12/02 00:00:57;;;;;;;9.23;5.18;;;;;;;;;;5065934;28;20044;-56
2021/12/02 00:03:24;;;;;;;8.85;5.55;;;;;;;;;;5063528;28;20025;-56
2021/12/02 00:05:50;;;;;;;18.83;8.40;;;;;;;;;;5065903;28;20031;-55
2021/12/02 00:08:16;;;;;;;12.05;7.30;;;;;;;;;;5066711;28;20115;-55
2021/12/02 00:10:43;;;;;;;14.57;7.93;;;;;;;;;;5066135;28;20052;-55
2021/12/02 00:13:11;;;;;;;13.57;6.90;;;;;;;;;;5066308;28;20542;-55
2021/12/02 00:18:29;;;;;;;12.15;6.90;;;;;;;;;;5065214;28;20418;-56
2021/12/02 00:21:05;;;;;;;10.38;6.53;;;;;;;;;;5065714;28;20151;-55
2021/12/02 00:23:34;;;;;;;10.43;5.82;;;;;;;;;;5065023;28;20032;-56
2021/12/02 00:26:02;;;;;;;9.70;5.80;;;;;;;;;;5065762;28;20553;-57
2021/12/02 00:28:31;;;;;;;9.43;5.57;;;;;;;;;;5064580;28;20028;-56
2021/12/02 00:30:58;;;;;;;8.65;5.55;;;;;;;;;;5065689;28;20036;-55
2021/12/02 00:33:25;;;;;;;6.40;3.90;;;;;;;;;;5064326;28;20078;-56
2021/12/02 00:35:52;;;;;;;6.03;3.78;;;;;;;;;;5066004;28;20024;-56
2021/12/02 00:38:22;;;;;;;6.53;4.18;;;;;;;;;;5065935;28;20055;-55
2021/12/02 00:40:48;;;;;;;5.47;3.88;;;;;;;;;;5066026;28;20037;-56
2021/12/02 00:43:15;;;;;;;5.18;3.85;;;;;;;;;;5066051;28;20395;-54
2021/12/02 00:45:41;;;;;;;6.47;3.78;;;;;;;;;;5064765;28;20059;-55
2021/12/02 00:48:08;;;;;;;6.45;3.58;;;;;;;;;;5065344;28;20036;-56
2021/12/02 00:50:35;;;;;;;4.88;3.22;;;;;;;;;;5065035;28;20028;-55
2021/12/02 00:53:01;;;;;;;4.90;3.10;;;;;;;;;;5045943;28;20126;-56
2021/12/02 00:55:27;;;;;;;5.10;3.28;;;;;;;;;;5063134;28;20497;-56
2021/12/02 00:57:56;;;;;;;4.60;2.67;;;;;;;;;;5065647;28;20099;-56
2021/12/02 01:00:22;;;;;;;5.70;3.65;;;;;;;;;;5064966;28;20040;-56
2021/12/02 01:02:49;;;;;;;5.78;3.67;;;;;;;;;;5064493;28;20052;-56
2021/12/02 01:05:15;;;;;;;5.95;4.20;;;;;;;;;;5063939;28;20032;-55
2021/12/02 01:07:43;;;;;;;4.97;3.40;;;;;;;;;;5064788;28;20321;-56
2021/12/02 01:10:09;;;;;;;7.00;4.13;;;;;;;;;;5065265;28;20793;-55
2021/12/02 01:12:36;;;;;;;7.95;4.63;;;;;;;;;;5063884;28;20029;-55
2021/12/02 01:15:03;;;;;;;8.82;5.35;;;;;;;;;;5063670;28;20045;-56
2021/12/02 01:17:29;;;;;;;8.30;4.72;;;;;;;;;;5064778;28;20073;-57
2021/12/02 01:19:55;;;;;;;7.07;4.63;;;;;;;;;;5064938;28;20024;-54
2021/12/02 01:22:22;;;;;;;6.47;4.45;;;;;;;;;;5064853;28;20051;-56
2021/12/02 01:24:50;;;;;;;7.47;4.45;;;;;;;;;;5065426;28;20024;-56
2021/12/02 01:27:16;;;;;;;5.85;4.10;;;;;;;;;;5063688;28;20040;-56
2021/12/02 01:29:42;;;;;;;6.03;4.10;;;;;;;;;;5046654;28;20028;-56
2021/12/02 01:32:11;;;;;;;6.35;4.03;;;;;;;;;;5064601;28;20032;-56
2021/12/02 01:34:37;;;;;;;7.47;4.55;;;;;;;;;;5065024;28;20119;-55
2021/12/02 01:37:04;;;;;;;6.55;4.20;;;;;;;;;;5063043;28;20050;-55
2021/12/02 01:39:30;;;;;;;7.30;4.55;;;;;;;;;;5064469;28;20036;-56
2021/12/02 01:41:58;;;;;;;7.53;4.63;;;;;;;;;;5064644;28;20123;-56
2021/12/02 01:44:27;;;;;;;8.40;5.38;;;;;;;;;;5064490;28;20086;-56
2021/12/02 01:46:55;;;;;;;8.18;5.32;;;;;;;;;;5063533;28;20029;-56
2021/12/02 01:49:23;;;;;;;9.07;5.63;;;;;;;;;;5063984;28;20435;-55
2021/12/02 01:51:50;;;;;;;8.98;5.47;;;;;;;;;;5064234;28;20060;-56
2021/12/02 01:54:17;;;;;;;8.43;5.05;;;;;;;;;;5063402;28;20128;-55
2021/12/02 01:56:46;;;;;;;10.07;5.25;;;;;;;;;;5063115;28;20491;-56
2021/12/02 01:59:14;;;;;;;9.32;5.60;;;;;;;;;;5064293;28;20495;-56
2021/12/02 02:01:42;;;;;;;8.05;5.18;;;;;;;;;;5064507;28;20037;-56
2021/12/02 02:04:08;;;;;;;7.40;4.63;;;;;;;;;;5063325;28;20376;-55
2021/12/02 02:06:39;;;;;;;5.25;3.92;;;;;;;;;;5063783;28;20029;-55
2021/12/02 02:09:07;;;;;;;7.57;4.32;;;;;;;;;;5064613;28;20029;-56
2021/12/02 02:11:33;;;;;;;5.85;3.72;;;;;;;;;;5064178;28;20428;-56
2021/12/02 02:13:59;;;;;;;7.30;4.60;;;;;;;;;;5045569;28;20558;-56
2021/12/02 02:16:26;;;;;;;8.77;4.95;;;;;;;;;;5064215;28;20056;-56
2021/12/02 02:18:52;;;;;;;9.40;5.22;;;;;;;;;;5064275;28;20499;-56
2021/12/02 02:21:21;;;;;;;9.93;5.40;;;;;;;;;;5064614;28;20108;-56
2021/12/02 02:23:55;;;;;;;8.85;5.35;;;;;;;;;;5063984;28;20079;-56
2021/12/02 02:26:27;;;;;;;8.25;5.15;;;;;;;;;;5064016;28;20503;-56
2021/12/02 02:28:54;;;;;;;7.90;5.00;;;;;;;;;;5068071;28;20028;-55
2021/12/02 02:31:20;;;;;;;10.82;6.00;;;;;;;;;;5067961;28;20107;-56
2021/12/02 02:33:49;;;;;;;8.60;5.38;;;;;;;;;;5066805;28;20028;-55
2021/12/02 02:36:16;;;;;;;8.57;5.70;;;;;;;;;;5068486;28;20103;-56
2021/12/02 02:38:44;;;;;;;8.35;5.28;;;;;;;;;;5067913;28;20518;-56
2021/12/02 02:41:12;;;;;;;10.80;6.50;;;;;;;;;;5067513;28;20108;-57
2021/12/02 02:43:39;;;;;;;10.13;6.43;;;;;;;;;;5066153;28;20491;-55
2021/12/02 02:46:05;;;;;;;8.85;5.68;;;;;;;;;;5067969;28;20747;-55
2021/12/02 02:48:32;;;;;;;9.35;6.00;;;;;;;;;;5067318;28;20327;-55
2021/12/02 02:50:58;;;;;;;7.43;5.03;;;;;;;;;;5067664;28;20029;-56
2021/12/02 02:53:26;;;;;;;8.38;5.65;;;;;;;;;;5066590;28;20017;-56
2021/12/02 02:58:29;;;;;;;7.55;5.00;;;;;;;;;;5068263;28;20024;-55
2021/12/02 03:01:06;;;;;;;6.82;4.85;;;;;;;;;;5067480;28;20020;-55
2021/12/02 03:03:56;;;;;;;8.60;5.55;;;;;;;;;;5066053;28;20052;-56
2021/12/02 03:06:43;;;;;;;9.38;5.85;;;;;;;;;;5046759;28;20033;-55
2021/12/02 03:11:54;;;;;;;8.75;6.13;;;;;;;;;;5047506;28;20033;-55
2021/12/02 03:17:10;;;;;;;10.35;6.30;;;;;;;;;;5056383;28;20055;-55
2021/12/02 03:19:39;;;;;;;8.52;5.45;;;;;;;;;;5067147;28;20387;-56
2021/12/02 03:22:05;;;;;;;7.38;4.85;;;;;;;;;;5067183;28;20063;-55
2021/12/02 03:24:31;;;;;;;7.53;5.38;;;;;;;;;;5066065;28;20025;-56
2021/12/02 03:26:57;;;;;;;9.02;5.82;;;;;;;;;;5067183;28;20032;-56
2021/12/02 03:29:24;;;;;;;7.63;5.15;;;;;;;;;;5065770;28;20715;-56
2021/12/02 03:31:50;;;;;;;9.10;5.40;;;;;;;;;;5066870;28;20025;-56
2021/12/02 03:34:16;;;;;;;11.20;6.20;;;;;;;;;;5065507;28;20024;-54
2021/12/02 03:36:42;;;;;;;8.48;5.60;;;;;;;;;;5066903;28;20076;-55
2021/12/02 03:39:09;;;;;;;9.02;5.85;;;;;;;;;;5066637;28;20044;-54
2021/12/02 03:41:37;;;;;;;7.72;5.32;;;;;;;;;;5066274;28;20040;-55
2021/12/02 03:44:03;;;;;;;8.48;5.40;;;;;;;;;;5066979;28;20411;-56
2021/12/02 03:46:29;;;;;;;7.90;4.80;;;;;;;;;;5065360;28;20029;-55
2021/12/02 03:48:55;;;;;;;8.68;5.53;;;;;;;;;;5066643;28;20052;-55
2021/12/02 03:51:22;;;;;;;8.18;5.65;;;;;;;;;;5066136;28;20031;-55
2021/12/02 03:53:48;;;;;;;6.80;4.78;;;;;;;;;;5048330;28;20028;-55
2021/12/02 03:56:15;;;;;;;9.23;5.32;;;;;;;;;;5065516;28;20143;-54
2021/12/02 03:58:43;;;;;;;8.00;5.30;;;;;;;;;;5066533;28;20452;-55
2021/12/02 04:01:10;;;;;;;7.75;5.07;;;;;;;;;;5065317;28;20381;-55
2021/12/02 04:03:38;;;;;;;8.48;5.63;;;;;;;;;;5066394;28;20036;-55
2021/12/02 04:06:06;;;;;;;6.70;4.85;;;;;;;;;;5065044;28;20107;-55
2021/12/02 04:08:56;;;;;;;7.65;5.10;;;;;;;;;;5066149;28;20493;-55
2021/12/02 04:14:23;;;;;;;7.07;4.75;;;;;;;;;;5049324;28;20056;-56
2021/12/02 04:17:08;;;;;;;6.38;4.35;;;;;;;;;;5046867;28;20027;-56
2021/12/02 04:19:37;;;;;;;7.43;4.35;;;;;;;;;;5046543;28;20021;-56
2021/12/02 04:22:03;;;;;;;7.20;4.47;;;;;;;;;;5046090;28;20102;-55
2021/12/02 04:24:30;;;;;;;7.45;4.82;;;;;;;;;;5046339;28;20025;-56
2021/12/02 04:26:57;;;;;;;7.75;4.95;;;;;;;;;;5066385;28;20039;-55
2021/12/02 04:29:24;;;;;;;7.20;5.00;;;;;;;;;;5065913;28;20287;-54
2021/12/02 04:31:50;;;;;;;10.38;6.20;;;;;;;;;;5065051;28;20029;-56
2021/12/02 04:34:17;;;;;;;8.13;5.55;;;;;;;;;;5065898;28;20024;-55
2021/12/02 04:36:43;;;;;;;9.32;5.82;;;;;;;;;;5064871;28;20032;-56
2021/12/02 04:39:10;;;;;;;8.32;4.85;;;;;;;;;;5065532;28;20024;-55
2021/12/02 04:41:37;;;;;;;8.10;5.03;;;;;;;;;;5065478;28;20050;-56
2021/12/02 04:44:04;;;;;;;7.53;5.28;;;;;;;;;;5065643;28;20024;-55
2021/12/02 04:46:31;;;;;;;9.48;6.18;;;;;;;;;;5045666;28;20457;-55
2021/12/02 04:48:57;;;;;;;9.00;5.32;;;;;;;;;;5065627;28;20024;-55
2021/12/02 04:51:23;;;;;;;8.05;5.00;;;;;;;;;;5064529;28;20110;-55
2021/12/02 04:53:49;;;;;;;7.30;5.15;;;;;;;;;;5065030;28;20109;-56
2021/12/02 04:56:15;;;;;;;7.22;4.88;;;;;;;;;;5064362;28;20052;-54
2021/12/02 04:58:42;;;;;;;7.90;5.43;;;;;;;;;;5065355;28;20491;-55
2021/12/02 05:01:08;;;;;;;23.98;15.35;;;;;;;;;;5046237;28;20449;-54
2021/12/02 05:03:34;;;;;;;21.25;13.23;;;;;;;;;;5064978;28;20028;-55
2021/12/02 05:06:01;;;;;;;17.67;11.68;;;;;;;;;;5063990;28;20038;-54
2021/12/02 05:08:27;;;;;;;15.55;10.05;;;;;;;;;;5064839;28;20075;-55
2021/12/02 05:10:53;;;;;;;13.63;9.00;;;;;;;;;;5064786;28;20064;-56
2021/12/02 05:13:19;;;;;;;12.90;8.55;;;;;;;;;;5064901;28;20373;-55
2021/12/02 05:15:45;;;;;;;14.45;8.85;;;;;;;;;;5064566;28;20028;-55
2021/12/02 05:18:11;;;;;;;12.90;7.97;;;;;;;;;;5046443;28;20028;-56
2021/12/02 05:20:37;;;;;;;14.60;9.43;;;;;;;;;;5044919;28;20342;-55
2021/12/02 05:23:04;;;;;;;14.18;8.73;;;;;;;;;;5045266;28;20021;-54
2021/12/02 05:25:31;;;;;;;14.05;8.63;;;;;;;;;;5047480;28;20377;-55
2021/12/02 05:27:58;;;;;;;13.52;7.88;;;;;;;;;;5064779;28;20027;-55
2021/12/02 05:30:24;;;;;;;12.13;7.45;;;;;;;;;;5064404;28;20036;-55
2021/12/02 05:32:51;;;;;;;12.70;8.18;;;;;;;;;;5064548;28;20059;-55
2021/12/02 05:35:17;;;;;;;13.15;7.57;;;;;;;;;;5063235;28;20029;-55
2021/12/02 05:37:43;;;;;;;13.30;7.80;;;;;;;;;;5064803;28;20029;-55
2021/12/02 05:40:09;;;;;;;11.88;7.43;;;;;;;;;;5064213;28;20094;-56
2021/12/02 05:42:35;;;;;;;12.63;7.03;;;;;;;;;;5064589;28;20024;-55
2021/12/02 05:45:01;;;;;;;10.23;6.65;;;;;;;;;;5063744;28;20052;-55
2021/12/02 05:47:28;;;;;;;11.50;6.88;;;;;;;;;;5063219;28;20020;-56
2021/12/02 05:49:54;;;;;;;10.35;6.20;;;;;;;;;;5064874;28;20121;-55
2021/12/02 05:52:20;;;;;;;12.75;6.80;;;;;;;;;;5064204;28;20437;-55
2021/12/02 05:54:47;;;;;;;10.98;6.35;;;;;;;;;;5065299;28;20561;-55
2021/12/02 05:57:15;;;;;;;10.40;6.57;;;;;;;;;;5063582;28;20033;-56
2021/12/02 05:59:41;;;;;;;8.57;5.38;;;;;;;;;;5064874;28;20048;-56
2021/12/02 06:02:07;;;;;;;10.30;5.93;;;;;;;;;;5064656;28;20083;-54
2021/12/02 06:04:34;;;;;;;9.63;6.07;;;;;;;;;;5068797;28;20454;-54
2021/12/02 06:07:00;;;;;;;8.73;5.53;;;;;;;;;;5067610;28;20021;-53
2021/12/02 06:09:26;;;;;;;8.07;5.22;;;;;;;;;;5068474;28;20037;-54
2021/12/02 06:11:53;;;;;;;7.15;5.03;;;;;;;;;;5068365;28;20513;-55
2021/12/02 06:14:19;;;;;;;7.90;5.28;;;;;;;;;;5068324;28;20032;-56
2021/12/02 06:16:45;;;;;;;6.10;4.53;;;;;;;;;;5068272;28;20028;-55
2021/12/02 06:19:12;;;;;;;7.53;4.95;;;;;;;;;;5068352;28;20453;-56
2021/12/02 06:21:39;;;;;;;9.63;6.05;;;;;;;;;;5067748;28;20037;-55
2021/12/02 06:24:05;;;;;;;15.35;9.82;;;;;;;;;;5064489;28;20044;-54
2021/12/02 06:26:32;;;;;;;18.35;9.60;;;;;;;;;;5068704;28;20032;-56
2021/12/02 06:28:58;;;;;;;16.63;9.98;;;;;;;;;;5069215;28;20037;-55
2021/12/02 06:31:25;;;;;;;20.70;11.57;;;;;;;;;;5067802;28;20017;-56
2021/12/02 06:33:51;;;;;;;21.70;12.05;;;;;;;;;;5065342;28;20488;-56
2021/12/02 06:36:18;;;;;;;18.92;10.95;;;;;;;;;;5068721;28;20031;-55
2021/12/02 06:38:44;;;;;;;18.33;9.43;;;;;;;;;;5069536;28;20055;-55
2021/12/02 06:41:10;;;;;;;18.38;9.82;;;;;;;;;;5050811;28;20470;-55
2021/12/02 06:43:36;;;;;;;15.85;9.23;;;;;;;;;;5069512;28;20056;-54
2021/12/02 06:46:03;;;;;;;11.30;6.85;;;;;;;;;;5067579;28;20016;-55
2021/12/02 06:48:29;;;;;;;10.68;6.97;;;;;;;;;;5067379;28;20028;-55
2021/12/02 06:50:55;;;;;;;10.38;6.60;;;;;;;;;;5068078;28;20557;-56
2021/12/02 06:53:22;;;;;;;10.77;6.50;;;;;;;;;;5067417;28;20032;-55
2021/12/02 06:55:48;;;;;;;11.55;6.70;;;;;;;;;;5068504;28;20287;-55
2021/12/02 06:58:14;;;;;;;8.65;5.68;;;;;;;;;;5068942;28;20403;-54
2021/12/02 07:00:40;;;;;;;8.32;5.25;;;;;;;;;;5066214;28;20036;-55
2021/12/02 07:03:06;;;;;;;10.20;6.75;;;;;;;;;;5075534;28;20032;-55
2021/12/02 07:05:33;;;;;;;10.10;6.03;;;;;;;;;;5085683;28;20408;-55
2021/12/02 07:08:00;;;;;;;10.70;6.90;;;;;;;;;;5065489;28;20044;-55
2021/12/02 07:10:27;;;;;;;11.73;6.72;;;;;;;;;;5069415;28;20032;-55
2021/12/02 07:12:56;;;;;;;11.68;6.57;;;;;;;;;;5076968;28;20033;-55
2021/12/02 07:15:29;;;;;;;12.63;7.25;;;;;;;;;;5067655;28;20392;-55
2021/12/02 07:18:00;;;;;;;13.07;7.38;;;;;;;;;;5068444;28;20021;-55
2021/12/02 07:20:34;;;;;;;11.68;7.05;;;;;;;;;;5068413;28;20033;-56
2021/12/02 07:23:03;;;;;;;11.60;6.85;;;;;;;;;;5068700;28;20020;-55
2021/12/02 07:25:30;;;;;;;12.73;6.55;;;;;;;;;;5066976;28;20031;-55
2021/12/02 07:27:56;;;;;;;10.13;6.53;;;;;;;;;;5072632;28;20054;-55
2021/12/02 07:30:23;;;;;;;24.60;13.77;;;;;;;;;;5065783;28;20013;-54
2021/12/02 07:32:53;;;;;;;25.15;14.32;;;;;;;;;;5067498;28;20032;-55
2021/12/02 07:35:19;;;;;;;22.23;12.15;;;;;;;;;;5068036;28;20032;-55
2021/12/02 07:37:46;;;;;;;17.45;10.73;;;;;;;;;;5066649;28;20131;-55
2021/12/02 07:40:13;;;;;;;18.88;10.30;;;;;;;;;;5067526;28;20372;-54
2021/12/02 07:42:39;;;;;;;18.65;11.10;;;;;;;;;;5064539;28;20040;-54
2021/12/02 07:45:06;;;;;;;17.60;10.65;;;;;;;;;;5057115;28;20028;-55
2021/12/02 07:47:34;;;;;;;16.25;9.27;;;;;;;;;;5067145;28;20451;-55
2021/12/02 07:50:00;;;;;;;14.13;8.55;;;;;;;;;;5067664;28;20036;-55
2021/12/02 07:52:29;;;;;;;15.50;8.93;;;;;;;;;;5065427;28;20562;-54
2021/12/02 07:54:55;;;;;;;13.25;8.10;;;;;;;;;;5067871;28;20028;-55
2021/12/02 07:57:22;;;;;;;11.95;7.25;;;;;;;;;;5067361;28;20025;-55
2021/12/02 07:59:50;;;;;;;10.50;6.28;;;;;;;;;;5067194;28;20033;-56
2021/12/02 08:02:17;;;;;;;11.85;6.90;;;;;;;;;;5067624;28;20495;-55
2021/12/02 08:04:43;;;;;;;12.23;6.68;;;;;;;;;;5066943;28;20031;-55
2021/12/02 08:07:09;;;;;;;12.60;7.00;;;;;;;;;;5066808;28;20032;-54
2021/12/02 08:09:35;;;;;;;7.47;4.90;;;;;;;;;;5066580;28;20087;-56
2021/12/02 08:12:02;;;;;;;7.53;4.93;;;;;;;;;;5065297;28;20020;-55
2021/12/02 08:14:28;;;;;;;7.45;4.45;;;;;;;;;;5067185;28;20103;-56
2021/12/02 08:16:54;;;;;;;8.05;4.90;;;;;;;;;;5065948;28;20113;-55
2021/12/02 08:19:20;;;;;;;7.28;4.28;;;;;;;;;;5064325;28;20032;-56
2021/12/02 08:21:47;;;;;;;8.00;4.53;;;;;;;;;;5067925;28;20033;-56
2021/12/02 08:24:13;;;;;;;6.72;4.03;;;;;;;;;;5066161;28;20515;-55
2021/12/02 08:26:40;;;;;;;8.13;4.93;;;;;;;;;;5080273;28;20326;-55
2021/12/02 08:29:06;;;;;;;6.68;4.07;;;;;;;;;;5071283;28;20024;-56
2021/12/02 08:31:33;;;;;;;7.65;4.45;;;;;;;;;;5066681;28;20032;-55
2021/12/02 08:33:59;;;;;;;6.65;4.20;;;;;;;;;;5066903;28;20335;-56
2021/12/02 08:36:40;;;;;;;7.20;4.55;;;;;;;;;;5062376;28;20147;-55
2021/12/02 08:39:07;;;;;;;7.70;4.53;;;;;;;;;;5066217;28;20112;-56
2021/12/02 08:41:33;;;;;;;7.05;4.55;;;;;;;;;;5065945;28;20483;-56
2021/12/02 08:43:59;;;;;;;6.13;3.53;;;;;;;;;;5064065;28;20111;-55
2021/12/02 08:46:27;;;;;;;5.40;3.63;;;;;;;;;;5066474;28;20116;-55
2021/12/02 08:48:54;;;;;;;7.05;3.80;;;;;;;;;;5065855;28;20029;-55
2021/12/02 08:51:20;;;;;;;6.50;3.85;;;;;;;;;;5066292;28;20032;-55
2021/12/02 08:53:46;;;;;;;5.13;3.30;;;;;;;;;;5067337;28;20027;-55
2021/12/02 08:56:12;;;;;;;5.88;3.58;;;;;;;;;;5066166;28;20024;-56
2021/12/02 08:58:38;;;;;;;6.20;3.65;;;;;;;;;;5064892;28;20552;-56
2021/12/02 09:01:04;;;;;;;4.78;3.47;;;;;;;;;;5069656;28;20028;-55
2021/12/02 09:03:33;;;;;;;5.60;3.58;;;;;;;;;;5069959;28;20024;-55
2021/12/02 09:06:00;;;;;;;4.55;3.30;;;;;;;;;;5067102;28;20090;-56
2021/12/02 09:08:26;;;;;;;6.93;4.13;;;;;;;;;;5065478;28;20067;-55
2021/12/02 09:10:56;;;;;;;6.57;4.00;;;;;;;;;;5065939;28;20333;-55
2021/12/02 09:13:23;;;;;;;6.10;4.38;;;;;;;;;;5063333;28;20035;-55
2021/12/02 09:15:50;;;;;;;5.97;4.00;;;;;;;;;;5055893;28;20071;-55
2021/12/02 09:18:16;;;;;;;4.95;3.35;;;;;;;;;;5058752;28;20046;-55
2021/12/02 09:20:43;;;;;;;6.60;3.78;;;;;;;;;;5065146;28;20519;-56
2021/12/02 09:23:09;;;;;;;5.75;3.38;;;;;;;;;;5067509;28;20089;-56
2021/12/02 09:25:35;;;;;;;7.65;4.20;;;;;;;;;;5050055;28;20032;-56
2021/12/02 09:28:02;;;;;;;7.40;3.75;;;;;;;;;;5045983;28;20040;-55
2021/12/02 09:30:29;;;;;;;8.68;4.22;;;;;;;;;;5065442;28;20032;-55
2021/12/02 09:32:55;;;;;;;7.88;4.05;;;;;;;;;;5065866;28;20028;-55
2021/12/02 09:35:21;;;;;;;6.30;3.67;;;;;;;;;;5065615;28;20028;-55
2021/12/02 09:37:47;;;;;;;6.43;3.70;;;;;;;;;;5064713;28;20024;-56
2021/12/02 09:40:14;;;;;;;5.75;3.38;;;;;;;;;;5065926;28;20043;-55
2021/12/02 09:42:42;;;;;;;5.03;3.22;;;;;;;;;;5064471;28;20533;-55
2021/12/02 09:45:08;;;;;;;6.63;2.80;;;;;;;;;;5063619;28;20483;-54
2021/12/02 09:47:37;;;;;;;6.85;3.20;;;;;;;;;;5056701;28;20036;-55
2021/12/02 09:50:08;;;;;;;6.45;3.30;;;;;;;;;;5061428;28;20040;-56
2021/12/02 09:52:38;;;;;;;4.88;2.85;;;;;;;;;;5067773;28;20024;-55
2021/12/02 09:55:32;;;;;;;6.13;2.67;;;;;;;;;;5068111;28;20075;-55
2021/12/02 09:58:00;;;;;;;4.77;2.90;;;;;;;;;;5067216;28;20474;-54
2021/12/02 10:00:51;;;;;;;5.07;2.83;;;;;;;;;;5064700;28;20187;-55
2021/12/02 10:03:26;;;;;;;5.38;3.10;;;;;;;;;;5064013;28;20112;-56
2021/12/02 10:06:05;;;;;;;4.35;2.53;;;;;;;;;;5064634;28;20029;-55
2021/12/02 10:08:37;;;;;;;3.53;2.47;;;;;;;;;;5063489;28;20441;-55
2021/12/02 10:11:11;;;;;;;3.97;2.70;;;;;;;;;;5064998;28;20021;-53
2021/12/02 10:13:58;;;;;;;4.03;2.65;;;;;;;;;;5065583;28;20025;-55
2021/12/02 10:16:29;;;;;;;5.35;2.88;;;;;;;;;;5064319;28;20016;-56
2021/12/02 10:22:09;;;;;;;5.78;3.28;;;;;;;;;;5055634;28;20682;-55
2021/12/02 10:24:41;;;;;;;6.30;3.40;;;;;;;;;;5065320;28;20071;-56
2021/12/02 10:27:07;;;;;;;5.22;2.80;;;;;;;;;;5055128;28;20044;-55
2021/12/02 10:29:35;;;;;;;5.55;2.85;;;;;;;;;;5064595;28;20107;-54
2021/12/02 10:32:06;;;;;;;4.22;2.70;;;;;;;;;;5063845;28;20039;-55
2021/12/02 10:34:45;;;;;;;4.85;2.70;;;;;;;;;;5065130;28;20016;-55
2021/12/02 10:37:11;;;;;;;7.30;2.95;;;;;;;;;;5063922;28;20110;-55
2021/12/02 10:39:37;;;;;;;5.78;3.08;;;;;;;;;;5064719;28;20035;-55
2021/12/02 10:42:08;;;;;;;3.92;2.67;;;;;;;;;;5062940;28;20067;-55
2021/12/02 10:44:35;;;;;;;5.88;3.35;;;;;;;;;;5064196;28;20024;-55
2021/12/02 10:47:03;;;;;;;6.43;2.90;;;;;;;;;;5063325;28;20028;-55
2021/12/02 10:49:31;;;;;;;4.13;2.90;;;;;;;;;;5067461;28;20609;-54
2021/12/02 10:52:00;;;;;;;4.65;3.03;;;;;;;;;;5068299;28;20119;-55
2021/12/02 10:54:28;;;;;;;5.38;2.90;;;;;;;;;;5067129;28;20546;-56
2021/12/02 10:56:55;;;;;;;5.68;2.67;;;;;;;;;;5068876;28;20024;-55
2021/12/02 10:59:26;;;;;;;4.95;3.10;;;;;;;;;;5068251;28;20036;-56
2021/12/02 11:01:53;;;;;;;6.00;3.30;;;;;;;;;;5068743;28;20040;-55
2021/12/02 11:04:19;;;;;;;5.15;3.45;;;;;;;;;;5066642;28;20020;-54
2021/12/02 11:06:48;;;;;;;4.47;3.10;;;;;;;;;;5065334;28;20040;-55
2021/12/02 11:09:28;;;;;;;5.75;3.83;;;;;;;;;;5061825;28;20035;-54
2021/12/02 11:12:14;;;;;;;6.22;3.38;;;;;;;;;;5066004;28;20400;-55
2021/12/02 11:14:42;;;;;;;6.50;3.60;;;;;;;;;;5058003;28;20024;-54
2021/12/02 11:17:15;;;;;;;4.30;2.35;;;;;;;;;;5066595;28;20107;-54
2021/12/02 11:19:45;;;;;;;5.75;3.03;;;;;;;;;;5066186;28;20032;-55
2021/12/02 11:22:13;;;;;;;6.95;3.78;;;;;;;;;;5066721;28;20572;-56
2021/12/02 11:24:39;;;;;;;5.47;3.63;;;;;;;;;;5067197;28;20024;-56
2021/12/02 11:27:06;;;;;;;6.65;4.30;;;;;;;;;;5065585;28;20048;-57
2021/12/02 11:29:51;;;;;;;6.22;3.50;;;;;;;;;;5048989;28;20135;-56
2021/12/02 11:32:28;;;;;;;5.18;3.28;;;;;;;;;;5066731;28;20032;-56
2021/12/02 11:35:13;;;;;;;4.82;2.88;;;;;;;;;;5067840;28;20029;-56
2021/12/02 11:37:39;;;;;;;;;;;;;;;;;;5065631;28;20024;-56
2021/12/02 11:40:07;;;;;;;4.28;2.20;;;;;;;;;;5068011;28;19916;-56
2021/12/02 11:42:35;;;;;;;5.13;2.78;;;;;;;;;;5066387;28;20032;-54
2021/12/02 11:45:01;;;;;;;3.17;2.00;;;;;;;;;;5069019;28;20037;-55
2021/12/02 11:47:28;;;;;;;3.60;1.70;;;;;;;;;;5068465;28;20056;-56
2021/12/02 11:49:54;;;;;;;3.75;1.80;;;;;;;;;;5068280;28;20025;-55
2021/12/02 11:52:20;;;;;;;2.53;1.58;;;;;;;;;;5062698;28;20032;-56
2021/12/02 11:54:46;;;;;;;2.60;1.40;;;;;;;;;;5066499;28;20032;-55
2021/12/02 11:57:13;;;;;;;2.53;1.38;;;;;;;;;;5065770;28;20028;-56
2021/12/02 11:59:39;;;;;;;2.97;2.00;;;;;;;;;;5064237;28;20029;-56
2021/12/02 12:02:05;;;;;;;5.63;2.42;;;;;;;;;;5066254;28;20032;-56
2021/12/02 12:04:35;;;;;;;4.93;2.85;;;;;;;;;;5066064;28;20028;-55
2021/12/02 12:07:29;;;;;;;6.10;2.42;;;;;;;;;;5063036;28;20098;-56
2021/12/02 12:10:14;;;;;;;5.88;2.53;;;;;;;;;;5018666;28;20044;-56
2021/12/02 12:12:43;;;;;;;5.47;2.53;;;;;;;;;;5060467;28;20064;-55
2021/12/02 12:15:29;;;;;;;6.22;2.97;;;;;;;;;;5067817;28;20111;-55
2021/12/02 12:17:55;;;;;;;7.22;3.00;;;;;;;;;;5065698;28;20029;-55
2021/12/02 12:20:21;;;;;;;9.23;3.75;;;;;;;;;;5078547;28;20016;-56
2021/12/02 12:22:47;;;;;;;20.25;6.70;;;;;;;;;;5073253;28;20064;-55
2021/12/02 12:25:28;;;;;;;29.67;9.88;;;;;;;;;;5066697;28;20029;-55
2021/12/02 12:28:00;;;;;;;49.72;15.60;;;;;;;;;;5067276;28;20575;-55
2021/12/02 12:30:36;;;;;;;36.45;11.73;;;;;;;;;;5066898;28;20044;-54
2021/12/02 12:33:13;;;;;;;29.95;9.00;;;;;;;;;;5065947;28;20091;-56
2021/12/02 12:36:02;;;;;;;25.85;7.90;;;;;;;;;;5065896;28;20112;-55
2021/12/02 12:38:33;;;;;;;17.60;5.82;;;;;;;;;;5066917;28;20031;-55
2021/12/02 12:41:04;;;;;;;6.63;3.17;;;;;;;;;;5067618;28;20032;-56
2021/12/02 12:43:45;;;;;;;7.57;2.80;;;;;;;;;;5063839;28;20504;-55
2021/12/02 12:46:27;;;;;;;7.85;2.60;;;;;;;;;;5059194;28;20025;-55
2021/12/02 12:48:54;;;;;;;4.40;2.28;;;;;;;;;;5071435;28;20344;-55
2021/12/02 12:51:25;;;;;;;4.90;2.08;;;;;;;;;;5071024;28;20025;-55
2021/12/02 12:53:52;;;;;;;3.72;1.80;;;;;;;;;;5065536;28;20594;-55
2021/12/02 12:56:25;;;;;;;3.47;2.10;;;;;;;;;;5065714;28;20384;-56
2021/12/02 12:58:54;;;;;;;3.50;1.90;;;;;;;;;;5047069;28;20029;-52
2021/12/02 13:01:22;;;;;;;3.00;1.67;;;;;;;;;;5063087;28;20036;-55
2021/12/02 13:04:27;;;;;;;1.73;1.00;;;;;;;;;;5067052;28;20033;-54
2021/12/02 13:07:01;;;;;;;1.33;0.93;;;;;;;;;;4962148;28;20062;-56
2021/12/02 13:09:57;;;;;;;1.10;0.80;;;;;;;;;;4962174;28;20078;-55
2021/12/02 13:12:29;;;;;;;1.23;0.82;;;;;;;;;;5029054;28;20040;-54
2021/12/02 13:14:55;;;;;;;1.73;1.10;;;;;;;;;;5066848;28;20025;-55
2021/12/02 13:17:51;;;;;;;1.83;1.00;;;;;;;;;;5068638;28;20529;-55
2021/12/02 13:20:18;;;;;;;0.70;0.50;;;;;;;;;;5044486;28;20141;-55
2021/12/02 13:22:47;;;;;;;0.70;0.70;;;;;;;;;;5055355;28;20021;-56
2021/12/02 13:25:41;;;;;;;0.95;0.70;;;;;;;;;;5056531;28;20033;-55
2021/12/02 13:28:15;;;;;;;1.85;0.80;;;;;;;;;;5062395;28;20086;-55
2021/12/02 13:30:41;;;;;;;0.80;0.60;;;;;;;;;;5065019;28;20035;-55
2021/12/02 13:33:08;;;;;;;2.80;0.73;;;;;;;;;;5061033;28;20024;-54
2021/12/02 13:35:34;;;;;;;0.77;0.60;;;;;;;;;;5063403;28;20035;-54
2021/12/02 13:38:01;;;;;;;0.40;0.40;;;;;;;;;;5068443;28;20454;-53
2021/12/02 13:40:33;;;;;;;0.95;0.60;;;;;;;;;;5064897;28;20031;-55
2021/12/02 13:42:59;;;;;;;1.35;0.68;;;;;;;;;;5065085;28;20044;-54
2021/12/02 13:45:27;;;;;;;1.42;0.93;;;;;;;;;;5064564;28;20037;-55
2021/12/02 13:48:06;;;;;;;3.03;1.40;;;;;;;;;;5063054;28;20399;-54
2021/12/02 13:50:35;;;;;;;3.55;1.63;;;;;;;;;;5081647;28;20036;-54
2021/12/02 13:53:02;;;;;;;3.47;1.73;;;;;;;;;;5062996;28;20504;-54
2021/12/02 13:55:35;;;;;;;2.58;1.40;;;;;;;;;;5065081;28;20264;-54
2021/12/02 13:58:36;;;;;;;2.20;1.00;;;;;;;;;;5064815;28;20063;-56
2021/12/02 14:00:59;;;;;;;1.70;1.20;;;;;;;;;;5060427;28;20032;-53
2021/12/02 14:03:28;;;;;;;1.42;0.90;;;;;;;;;;5074704;28;20063;-52
2021/12/02 14:05:56;;;;;;;1.65;1.10;;;;;;;;;;5084247;28;20059;-55
2021/12/02 14:08:23;;;;;;;2.38;1.67;;;;;;;;;;5066457;28;20441;-55
2021/12/02 14:10:50;;;;;;;2.13;1.10;;;;;;;;;;5064721;28;20038;-55
2021/12/02 14:13:24;;;;;;;4.95;1.23;;;;;;;;;;5062412;28;20020;-55
2021/12/02 14:15:54;;;;;;;2.13;1.10;;;;;;;;;;5064449;28;20688;-55
2021/12/02 14:18:22;;;;;;;1.23;0.85;;;;;;;;;;5063819;28;20530;-55
2021/12/02 14:20:53;;;;;;;2.05;1.02;;;;;;;;;;5079153;28;20402;-54
2021/12/02 14:23:20;;;;;;;2.00;1.20;;;;;;;;;;5063223;28;20024;-54
2021/12/02 14:25:51;;;;;;;1.67;0.90;;;;;;;;;;5066958;28;20032;-54
2021/12/02 14:28:20;;;;;;;2.53;1.20;;;;;;;;;;5050233;28;20021;-56
2021/12/02 14:30:48;;;;;;;3.42;1.45;;;;;;;;;;5066791;28;20090;-56
2021/12/02 14:33:15;;;;;;;4.05;1.70;;;;;;;;;;5057036;28;20044;-56
2021/12/02 14:35:44;;;;;;;2.80;1.58;;;;;;;;;;5088603;28;20024;-55
2021/12/02 14:38:20;;;;;;;2.70;1.30;;;;;;;;;;5070241;28;20025;-56
2021/12/02 14:40:47;;;;;;;2.33;1.15;;;;;;;;;;5067422;28;20040;-56
2021/12/02 14:43:21;;;;;;;1.50;0.90;;;;;;;;;;5067399;28;20025;-55
2021/12/02 14:45:48;;;;;;;2.13;1.17;;;;;;;;;;5068055;28;20063;-55
2021/12/02 14:48:28;;;;;;;1.40;0.90;;;;;;;;;;5053500;28;20066;-55
2021/12/02 14:51:03;;;;;;;2.22;1.35;;;;;;;;;;5047999;28;20033;-54
2021/12/02 14:53:34;;;;;;;4.05;2.13;;;;;;;;;;5066172;28;20028;-56
2021/12/02 14:56:05;;;;;;;3.90;2.15;;;;;;;;;;5064391;28;20031;-54
2021/12/02 14:58:31;;;;;;;3.78;2.20;;;;;;;;;;5067256;28;20048;-52
2021/12/02 15:01:11;;;;;;;10.20;3.72;;;;;;;;;;5087393;28;20087;-55
2021/12/02 15:03:37;;;;;;;12.05;4.45;;;;;;;;;;5065959;28;20427;-51
2021/12/02 15:06:03;;;;;;;15.88;6.55;;;;;;;;;;5063564;28;20125;-52